createdAt,value
2023-07-28T00:02:34.783Z,595
2023-07-28T00:07:53.200Z,616
2023-07-28T00:13:11.497Z,618
2023-07-28T00:18:32.502Z,605
2023-07-28T00:23:50.651Z,573
2023-07-28T00:29:08.806Z,576
2023-07-28T00:34:27.306Z,573
2023-07-28T00:39:45.673Z,572
2023-07-28T00:45:04.008Z,568
2023-07-28T00:50:22.173Z,585
2023-07-28T00:55:40.318Z,585
2023-07-28T01:00:58.670Z,562
2023-07-28T01:06:17.041Z,562
2023-07-28T01:11:35.590Z,559
2023-07-28T01:16:53.973Z,564
2023-07-28T01:22:12.290Z,567
2023-07-28T01:27:30.454Z,552
2023-07-28T01:32:48.634Z,543
2023-07-28T01:38:06.994Z,545
2023-07-28T01:43:25.381Z,553
2023-07-28T01:48:43.548Z,542
2023-07-28T01:54:01.663Z,543
2023-07-28T01:59:20.031Z,554
2023-07-28T02:04:38.429Z,557
2023-07-28T02:09:56.481Z,544
2023-07-28T02:15:15.068Z,541
2023-07-28T02:20:33.466Z,545
2023-07-28T02:25:51.832Z,544
2023-07-28T02:31:13.227Z,537
2023-07-28T02:36:31.500Z,544
2023-07-28T02:41:50.357Z,556
2023-07-28T02:47:08.833Z,548
2023-07-28T02:52:27.371Z,564
2023-07-28T02:57:45.924Z,577
2023-07-28T03:03:04.550Z,589
2023-07-28T03:08:23.536Z,583
2023-07-28T03:13:42.079Z,565
2023-07-28T03:19:00.456Z,556
2023-07-28T03:24:18.666Z,561
2023-07-28T03:29:37.056Z,567
2023-07-28T03:34:55.454Z,533
2023-07-28T03:40:13.464Z,522
2023-07-28T03:45:31.853Z,522
2023-07-28T03:50:50.237Z,511
2023-07-28T03:56:08.605Z,511
2023-07-28T04:01:26.929Z,519
2023-07-28T04:06:45.249Z,543
2023-07-28T04:12:03.814Z,535
2023-07-28T04:17:22.172Z,521
2023-07-28T04:22:40.253Z,517
2023-07-28T04:27:58.616Z,517
2023-07-28T04:33:16.781Z,517
2023-07-28T04:38:35.146Z,518
2023-07-28T04:43:53.850Z,527
2023-07-28T04:49:12.174Z,533
2023-07-28T04:54:30.648Z,530
2023-07-28T04:59:49.014Z,527
2023-07-28T05:05:06.960Z,519
2023-07-28T05:10:25.130Z,514
2023-07-28T05:15:43.669Z,492
2023-07-28T05:21:02.001Z,483
2023-07-28T05:26:20.357Z,490
2023-07-28T05:31:38.946Z,483
2023-07-28T05:36:57.069Z,482
2023-07-28T05:42:15.678Z,479
2023-07-28T05:47:34.350Z,474
2023-07-28T05:52:52.996Z,471
2023-07-28T05:58:11.340Z,468
2023-07-28T06:03:29.514Z,474
2023-07-28T06:08:47.584Z,470
2023-07-28T06:14:06.188Z,451
2023-07-28T06:19:24.798Z,443
2023-07-28T06:24:43.253Z,438
2023-07-28T06:30:01.807Z,439
2023-07-28T06:35:20.168Z,433
2023-07-28T06:40:38.472Z,436
2023-07-28T06:45:56.684Z,444
2023-07-28T06:51:15.348Z,446
2023-07-28T06:56:33.489Z,447
2023-07-28T07:01:52.166Z,441
2023-07-28T07:07:10.891Z,427
2023-07-28T07:12:29.333Z,422
2023-07-28T07:17:47.711Z,419
2023-07-28T07:23:06.689Z,420
2023-07-28T07:28:28.358Z,434
2023-07-28T07:33:46.701Z,450
2023-07-28T07:39:05.234Z,454
2023-07-28T07:44:23.564Z,452
2023-07-28T07:49:26.114Z,440
2023-07-28T07:54:44.301Z,436
2023-07-28T08:00:02.405Z,436
2023-07-28T08:05:20.772Z,435
2023-07-28T08:10:38.927Z,435
2023-07-28T08:15:57.265Z,432
2023-07-28T08:21:22.577Z,444
2023-07-28T08:26:41.333Z,434
2023-07-28T08:31:59.679Z,433
2023-07-28T08:37:18.045Z,430
2023-07-28T08:42:36.807Z,431
2023-07-28T08:47:54.994Z,446
2023-07-28T08:53:13.314Z,440
2023-07-28T08:58:33.062Z,438
2023-07-28T09:03:51.560Z,434
2023-07-28T09:09:09.962Z,419
2023-07-28T09:14:28.395Z,411
2023-07-28T09:19:46.482Z,401
2023-07-28T09:25:04.619Z,401
2023-07-28T09:30:07.200Z,399
2023-07-28T09:35:25.376Z,401
2023-07-28T09:40:43.755Z,408
2023-07-28T09:45:46.338Z,410
2023-07-28T09:51:04.646Z,419
2023-07-28T09:56:23.329Z,457
2023-07-28T10:01:41.377Z,492
2023-07-28T10:07:00.037Z,487
2023-07-28T10:12:18.470Z,494
2023-07-28T10:17:21.029Z,511
2023-07-28T10:22:41.873Z,506
2023-07-28T10:28:00.161Z,505
2023-07-28T10:33:18.758Z,496
2023-07-28T10:38:36.921Z,496
2023-07-28T10:43:55.371Z,491
2023-07-28T10:49:13.650Z,475
2023-07-28T10:54:32.203Z,470
2023-07-28T10:59:50.374Z,465
2023-07-28T11:05:08.527Z,461
2023-07-28T11:10:27.096Z,463
2023-07-28T11:15:45.691Z,472
2023-07-28T11:21:04.282Z,477
2023-07-28T11:26:22.632Z,480
2023-07-28T11:31:41.193Z,466
2023-07-28T11:36:59.145Z,462
2023-07-28T11:42:17.479Z,491
2023-07-28T11:47:36.482Z,504
2023-07-28T11:52:54.919Z,502
2023-07-28T11:58:13.068Z,502
2023-07-28T12:03:31.412Z,506
2023-07-28T12:08:50.757Z,519
2023-07-28T12:19:36.503Z,529
2023-07-28T12:24:55.241Z,518
2023-07-28T12:30:17.166Z,502
2023-07-28T12:46:29.914Z,502
2023-07-28T12:57:16.296Z,539
2023-07-28T13:02:36.279Z,525
2023-07-28T13:13:25.094Z,549
2023-07-28T13:18:43.256Z,551
2023-07-28T13:24:02.049Z,553
2023-07-28T13:29:20.846Z,541
2023-07-28T13:34:39.452Z,537
2023-07-28T13:39:58.592Z,554
2023-07-28T13:45:16.767Z,557
2023-07-28T13:50:37.981Z,629
2023-07-28T13:55:57.730Z,630
2023-07-28T14:01:16.642Z,619
2023-07-28T14:06:34.799Z,616
2023-07-28T14:11:53.394Z,611
2023-07-28T14:17:11.590Z,610
2023-07-28T14:22:29.733Z,604
2023-07-28T14:27:48.256Z,601
2023-07-28T14:33:06.850Z,595
2023-07-28T14:38:25.158Z,591
2023-07-28T14:43:43.447Z,584
2023-07-28T14:49:01.459Z,575
2023-07-28T14:54:19.617Z,578
2023-07-28T14:59:38.227Z,571
2023-07-28T15:04:56.380Z,570
2023-07-28T15:10:14.533Z,563
2023-07-28T15:15:32.853Z,566
2023-07-28T15:20:51.189Z,560
2023-07-28T15:26:09.890Z,558
2023-07-28T15:31:28.370Z,550
2023-07-28T15:36:46.932Z,546
2023-07-28T15:42:05.444Z,547
2023-07-28T15:47:23.621Z,542
2023-07-28T15:52:42.088Z,544
2023-07-28T15:58:00.636Z,535
2023-07-28T16:03:19.458Z,533
2023-07-28T16:08:38.177Z,533
2023-07-28T16:13:56.519Z,530
2023-07-28T16:19:14.879Z,526
2023-07-28T16:24:33.417Z,529
2023-07-28T16:29:51.791Z,524
2023-07-28T16:35:09.976Z,520
2023-07-28T16:40:28.519Z,520
2023-07-28T16:45:46.871Z,513
2023-07-28T16:51:05.495Z,514
2023-07-28T16:56:24.205Z,508
2023-07-28T17:01:42.797Z,505
2023-07-28T17:07:01.104Z,501
2023-07-28T17:12:19.589Z,496
2023-07-28T17:17:37.777Z,497
2023-07-28T17:22:56.331Z,498
2023-07-28T17:28:14.557Z,499
2023-07-28T17:33:32.994Z,491
2023-07-28T17:38:50.984Z,486
2023-07-28T17:44:09.355Z,483
2023-07-28T17:49:27.951Z,483
2023-07-28T17:54:46.281Z,478
2023-07-28T18:00:04.314Z,479
2023-07-28T18:05:22.657Z,480
2023-07-28T18:10:42.719Z,486
2023-07-28T18:16:01.089Z,483
2023-07-28T18:21:19.306Z,483
2023-07-28T18:26:37.708Z,482
2023-07-28T18:31:55.875Z,479
2023-07-28T18:37:14.417Z,474
2023-07-28T18:42:32.780Z,474
2023-07-28T18:47:51.108Z,475
2023-07-28T18:53:09.293Z,475
2023-07-28T18:58:27.478Z,471
2023-07-28T19:03:45.533Z,472
2023-07-28T19:09:04.084Z,473
2023-07-28T19:14:22.444Z,473
2023-07-28T19:19:41.241Z,471
2023-07-28T19:24:59.594Z,473
2023-07-28T19:30:17.962Z,472
2023-07-28T19:35:36.157Z,473
2023-07-28T19:40:54.506Z,472
2023-07-28T19:45:57.104Z,473
2023-07-28T19:51:15.342Z,476
2023-07-28T19:56:33.847Z,470
2023-07-28T20:01:53.311Z,473
2023-07-28T20:07:12.038Z,477
2023-07-28T20:12:30.000Z,473
2023-07-28T20:17:48.266Z,472
2023-07-28T20:23:06.853Z,472
2023-07-28T20:28:25.265Z,469
2023-07-28T20:33:43.881Z,470
2023-07-28T20:39:02.335Z,470
2023-07-28T20:44:20.467Z,473
2023-07-28T20:49:38.410Z,471
2023-07-28T20:54:56.631Z,467
2023-07-28T21:00:14.940Z,464
2023-07-28T21:05:33.526Z,466
2023-07-28T21:10:51.879Z,464
2023-07-28T21:16:10.296Z,460
2023-07-28T21:21:28.977Z,457
2023-07-28T21:26:47.169Z,460
2023-07-28T21:32:05.418Z,461
2023-07-28T21:37:23.989Z,461
2023-07-28T21:42:42.360Z,457
2023-07-28T21:48:00.688Z,455
2023-07-28T21:53:19.463Z,453
2023-07-28T21:58:37.532Z,452
2023-07-28T22:03:56.215Z,452
2023-07-28T22:09:15.166Z,451
2023-07-28T22:14:33.621Z,452
2023-07-28T22:19:51.967Z,448
2023-07-28T22:25:10.499Z,450
2023-07-28T22:30:28.859Z,450
2023-07-28T22:35:46.802Z,445
2023-07-28T22:41:05.044Z,447
2023-07-28T22:46:23.154Z,447
2023-07-28T22:51:41.653Z,450
2023-07-28T22:56:59.832Z,450
2023-07-28T23:02:17.997Z,450
2023-07-28T23:07:36.534Z,450
2023-07-28T23:12:55.100Z,451
2023-07-28T23:18:13.028Z,452
2023-07-28T23:23:31.568Z,451
2023-07-28T23:28:49.929Z,455
2023-07-28T23:34:08.485Z,450
2023-07-28T23:39:26.817Z,446
2023-07-28T23:44:45.350Z,450
2023-07-28T23:50:03.643Z,452
2023-07-28T23:55:22.093Z,452
